Time;durP1;ratioP1;P1;durP2;ratioP2;P2;SDS_P1;SDS_P2;PMS_P1;PMS_P2;Temp;Humidity;BMP_temperature;BMP_pressure;BME280_temperature;BME280_humidity;BME280_pressure;Samples;Min_cycle;Max_cycle;Signal;HPM_P1;HPM_P2
2023/04/30 00:00:34;;;;;;;9.48;7.45;;;;;;;7.61;100.00;101723.16;7790425;18;20005;-73
2023/04/30 00:03:01;;;;;;;7.43;6.75;;;;;;;7.17;100.00;101661.44;7788576;18;20558;-71
2023/04/30 00:05:27;;;;;;;7.53;6.82;;;;;;;7.49;100.00;101725.13;7790597;18;20006;-71
2023/04/30 00:07:54;;;;;;;7.85;6.85;;;;;;;6.40;100.00;101555.31;7748441;18;20407;-70
2023/04/30 00:10:20;;;;;;;7.43;6.82;;;;;;;7.38;100.00;101721.94;7790263;18;20005;-71
2023/04/30 00:12:47;;;;;;;13.35;7.05;;;;;;;7.18;100.00;101707.56;7791017;18;19994;-72
2023/04/30 00:15:13;;;;;;;6.55;5.95;;;;;;;6.68;100.00;101632.97;7755542;18;20301;-72
2023/04/30 00:17:40;;;;;;;7.82;7.07;;;;;;;7.39;100.00;101739.31;7792432;18;20571;-71
2023/04/30 00:20:07;;;;;;;8.18;7.32;;;;;;;7.42;100.00;101741.84;7790378;18;20507;-71
2023/04/30 00:22:33;;;;;;;7.57;6.80;;;;;;;7.45;100.00;101741.78;7749084;18;20070;-70
2023/04/30 00:25:00;;;;;;;8.52;7.15;;;;;;;7.28;100.00;101723.88;7790685;18;20005;-71
2023/04/30 00:27:27;;;;;;;7.82;6.97;;;;;;;7.41;100.00;101745.34;7790151;18;20028;-71
2023/04/30 00:29:54;;;;;;;6.82;6.22;;;;;;;7.40;100.00;101743.66;7790393;18;20029;-72
2023/04/30 00:32:21;;;;;;;11.82;7.25;;;;;;;7.10;100.00;101701.66;7788315;18;20048;-71
2023/04/30 00:34:47;;;;;;;6.97;6.38;;;;;;;7.30;100.00;101742.97;7789684;18;20069;-71
2023/04/30 00:37:14;;;;;;;8.20;7.40;;;;;;;7.22;100.00;101731.84;7789172;18;20117;-71
2023/04/30 00:39:40;;;;;;;8.50;6.75;;;;;;;7.11;100.00;101718.16;7790899;18;20131;-71
2023/04/30 00:42:07;;;;;;;6.38;5.78;;;;;;;7.18;100.00;101731.06;7788251;18;20058;-71
2023/04/30 00:44:33;;;;;;;7.78;7.03;;;;;;;7.21;100.00;101747.53;7789955;18;20004;-71
2023/04/30 00:46:59;;;;;;;10.40;5.38;;;;;;;7.16;100.00;101743.28;7789631;18;20411;-71
2023/04/30 00:49:26;;;;;;;7.95;7.07;;;;;;;7.10;100.00;101748.63;7789404;18;19998;-71
2023/04/30 00:51:53;;;;;;;6.70;6.03;;;;;;;7.08;100.00;101746.94;7788680;18;20000;-71
2023/04/30 00:54:20;;;;;;;8.50;7.72;;;;;;;7.07;100.00;101753.03;7787753;18;20051;-71
2023/04/30 00:56:46;;;;;;;6.80;6.20;;;;;;;6.33;100.00;101634.53;7789214;18;20023;-70
2023/04/30 00:59:13;;;;;;;7.40;6.70;;;;;;;6.81;100.00;101712.69;7789029;18;19994;-70
2023/04/30 01:01:39;;;;;;;6.65;6.20;;;;;;;6.99;100.00;101753.19;7788130;18;20663;-70
2023/04/30 01:04:06;;;;;;;8.02;6.65;;;;;;;6.99;100.00;101747.97;7786885;18;20326;-71
2023/04/30 01:06:33;;;;;;;6.40;5.95;;;;;;;6.92;100.00;101743.78;7788453;18;20431;-73
2023/04/30 01:09:00;;;;;;;7.32;6.63;;;;;;;6.97;100.00;101752.38;7787767;18;20025;-71
2023/04/30 01:11:48;;;;;;;7.78;7.13;;;;;;;6.78;100.00;101720.59;7789003;18;20469;-71
2023/04/30 01:14:24;;;;;;;7.53;6.75;;;;;;;6.88;100.00;101748.22;7790149;18;20086;-70
2023/04/30 01:16:58;;;;;;;7.40;5.80;;;;;;;6.75;100.00;101736.28;7791487;18;20061;-71
2023/04/30 01:19:37;;;;;;;7.05;6.35;;;;;;;6.75;100.00;101755.41;7838467;18;20052;-71
2023/04/30 01:22:07;;;;;;;10.82;6.88;;;;;;;6.69;100.00;101750.28;7751052;18;20020;-71
2023/04/30 01:25:18;;;;;;;7.82;7.22;;;;;;;6.57;100.00;101742.72;7838113;18;20002;-71
2023/04/30 01:28:04;;;;;;;8.98;7.50;;;;;;;6.49;100.00;101735.03;7821117;18;20006;-71
2023/04/30 01:30:32;;;;;;;12.57;7.00;;;;;;;6.37;100.00;101732.66;7790576;18;20004;-71
2023/04/30 01:32:59;;;;;;;7.03;6.10;;;;;;;5.77;100.00;101642.44;7789967;18;20002;-71
2023/04/30 01:35:45;;;;;;;8.52;7.05;;;;;;;6.26;100.00;101737.22;7790358;18;20144;-71
2023/04/30 01:38:17;;;;;;;10.00;6.35;;;;;;;6.25;100.00;101744.16;7765132;18;20049;-71
2023/04/30 01:40:54;;;;;;;7.97;6.93;;;;;;;6.23;100.00;101745.06;7790781;18;20617;-70
2023/04/30 01:43:43;;;;;;;8.25;7.45;;;;;;;6.21;100.00;101739.88;7790628;18;20076;-71
2023/04/30 01:46:24;;;;;;;7.22;6.40;;;;;;;6.24;100.00;101744.19;7791578;18;20204;-71
2023/04/30 01:49:15;;;;;;;6.75;6.05;;;;;;;6.25;100.00;101745.91;7790014;18;20021;-73
2023/04/30 01:51:43;;;;;;;6.53;5.82;;;;;;;5.38;100.00;101598.81;7789468;18;20060;-71
2023/04/30 01:54:24;;;;;;;6.53;5.93;;;;;;;5.87;100.00;101700.47;7790220;18;20218;-71
2023/04/30 01:57:05;;;;;;;6.63;6.13;;;;;;;5.70;100.00;101674.72;7747305;18;20125;-72
2023/04/30 01:59:34;;;;;;;7.57;6.88;;;;;;;6.13;100.00;101752.19;7789916;18;20606;-71
2023/04/30 02:02:01;;;;;;;6.53;6.03;;;;;;;6.07;100.00;101753.13;7788980;18;20002;-71
2023/04/30 02:04:27;;;;;;;9.63;7.22;;;;;;;5.69;100.00;101696.41;7790522;18;20006;-72
2023/04/30 02:06:54;;;;;;;6.70;5.72;;;;;;;5.99;100.00;101752.41;7789766;18;20006;-71
2023/04/30 02:09:22;;;;;;;8.48;6.40;;;;;;;5.94;100.00;101755.06;7786412;18;20010;-71
2023/04/30 02:11:49;;;;;;;7.82;6.25;;;;;;;5.35;100.00;101660.47;7790640;18;20017;-71
2023/04/30 02:14:16;;;;;;;6.20;5.70;;;;;;;5.59;100.00;101712.19;7789710;18;20006;-71
2023/04/30 02:16:42;;;;;;;6.72;6.13;;;;;;;5.84;100.00;101755.25;7748300;18;20006;-72
2023/04/30 02:19:10;;;;;;;8.32;7.03;;;;;;;5.77;100.00;101733.63;7790133;18;20478;-70
2023/04/30 02:21:36;;;;;;;16.17;6.97;;;;;;;5.89;100.00;101756.00;7788680;18;20400;-70
2023/04/30 02:24:03;;;;;;;7.22;6.30;;;;;;;5.80;100.00;101741.41;7749001;18;20008;-71
2023/04/30 02:26:29;;;;;;;6.72;6.13;;;;;;;5.20;100.00;101654.63;7789879;18;19994;-71
2023/04/30 02:28:55;;;;;;;6.03;5.63;;;;;;;5.75;100.00;101746.69;7789604;18;19998;-70
2023/04/30 02:31:22;;;;;;;7.22;6.53;;;;;;;5.71;100.00;101744.13;7789218;18;20659;-70
2023/04/30 02:33:48;;;;;;;7.20;5.82;;;;;;;5.67;100.00;101742.47;7748003;18;20003;-71
2023/04/30 02:36:14;;;;;;;6.72;5.78;;;;;;;5.56;100.00;101738.28;7790521;18;20001;-70
2023/04/30 02:38:41;;;;;;;5.97;5.47;;;;;;;5.60;100.00;101744.31;7788845;18;20025;-70
2023/04/30 02:41:08;;;;;;;6.70;6.13;;;;;;;4.72;100.00;101609.34;7790921;18;19994;-71
2023/04/30 02:43:34;;;;;;;6.82;6.32;;;;;;;5.49;100.00;101748.78;7789278;18;20446;-71
2023/04/30 02:46:01;;;;;;;9.02;6.32;;;;;;;5.35;100.00;101733.34;7790095;18;20042;-70
2023/04/30 02:48:27;;;;;;;6.75;6.18;;;;;;;5.41;100.00;101754.09;7788999;18;19994;-71
2023/04/30 02:50:56;;;;;;;10.23;7.15;;;;;;;5.37;100.00;101752.41;7790621;18;20002;-71
2023/04/30 02:53:22;;;;;;;6.43;5.97;;;;;;;5.34;100.00;101749.88;7789894;18;20034;-70
2023/04/30 02:55:48;;;;;;;8.52;7.82;;;;;;;5.34;100.00;101758.53;7789431;18;20069;-71
2023/04/30 02:58:15;;;;;;;6.35;5.85;;;;;;;5.34;100.00;101762.88;7786870;18;20001;-70
2023/04/30 03:00:41;;;;;;;8.38;6.18;;;;;;;4.93;100.00;101705.31;7790204;18;20714;-70
2023/04/30 03:03:08;;;;;;;6.28;5.78;;;;;;;5.28;100.00;101765.56;7789452;18;20013;-71
2023/04/30 03:05:34;;;;;;;7.30;6.60;;;;;;;5.19;100.00;101763.94;7791117;18;20032;-71
2023/04/30 03:08:01;;;;;;;6.35;5.85;;;;;;;5.17;100.00;101766.56;7788915;18;20604;-71
2023/04/30 03:10:27;;;;;;;6.90;6.30;;;;;;;4.88;100.00;101721.84;7790239;18;20482;-71
2023/04/30 03:12:54;;;;;;;6.45;5.88;;;;;;;5.11;100.00;101765.78;7789070;18;20047;-70
2023/04/30 03:15:22;;;;;;;7.13;6.00;;;;;;;5.06;100.00;101768.44;7791154;18;20002;-72
2023/04/30 03:17:49;;;;;;;6.43;5.82;;;;;;;5.02;100.00;101765.91;7789826;18;19998;-70
2023/04/30 03:20:15;;;;;;;6.18;5.75;;;;;;;4.98;100.00;101763.31;7789820;18;20621;-71
2023/04/30 03:22:41;;;;;;;7.90;7.20;;;;;;;4.60;100.00;101698.75;7789060;18;19997;-71
2023/04/30 03:25:09;;;;;;;8.05;6.57;;;;;;;4.96;100.00;101764.22;7791106;18;20004;-70
2023/04/30 03:27:35;;;;;;;6.75;6.10;;;;;;;4.58;100.00;101705.72;7789435;18;20053;-71
2023/04/30 03:30:02;;;;;;;5.20;4.90;;;;;;;4.87;100.00;101751.31;7790192;18;20526;-70
2023/04/30 03:32:28;;;;;;;6.43;5.82;;;;;;;4.45;100.00;101692.00;7790304;18;20047;-70
2023/04/30 03:34:55;;;;;;;6.38;5.93;;;;;;;4.65;100.00;101725.56;7789718;18;20002;-72
2023/04/30 03:37:21;;;;;;;6.72;6.10;;;;;;;4.79;100.00;101764.41;7788627;18;20060;-69
2023/04/30 03:39:48;;;;;;;6.63;6.13;;;;;;;4.75;100.00;101761.00;7788353;18;20460;-71
2023/04/30 03:42:14;;;;;;;7.03;5.85;;;;;;;4.69;100.00;101753.25;7787843;18;20005;-71
2023/04/30 03:44:41;;;;;;;6.28;5.80;;;;;;;4.68;100.00;101759.31;7790101;18;20065;-70
2023/04/30 03:47:07;;;;;;;7.82;5.57;;;;;;;4.66;100.00;101753.28;7790504;18;20065;-71
2023/04/30 03:49:34;;;;;;;8.18;5.60;;;;;;;4.62;100.00;101754.19;7789338;18;20017;-71
2023/04/30 03:52:00;;;;;;;7.95;6.95;;;;;;;4.62;100.00;101755.94;7788855;18;20006;-70
2023/04/30 03:54:27;;;;;;;7.95;6.07;;;;;;;4.58;100.00;101757.72;7790035;18;20010;-72
2023/04/30 03:56:54;;;;;;;7.85;7.15;;;;;;;4.54;100.00;101758.63;7789721;18;20014;-71
2023/04/30 03:59:21;;;;;;;6.38;5.75;;;;;;;4.46;100.00;101756.09;7835610;18;20072;-71
2023/04/30 04:01:48;;;;;;;10.82;7.30;;;;;;;4.45;100.00;101756.97;7789433;18;20006;-71
2023/04/30 04:04:14;;;;;;;6.45;5.90;;;;;;;4.44;100.00;101767.38;7836433;18;20089;-71
2023/04/30 04:06:41;;;;;;;8.95;5.95;;;;;;;3.98;100.00;101704.56;7790184;18;20702;-71
2023/04/30 04:09:08;;;;;;;5.53;5.13;;;;;;;4.36;100.00;101764.84;7835852;18;20013;-70
2023/04/30 04:11:34;;;;;;;7.22;6.57;;;;;;;4.20;100.00;101733.78;7789650;18;19998;-70
2023/04/30 04:14:01;;;;;;;6.68;6.10;;;;;;;4.31;100.00;101770.09;7836101;18;20050;-73
2023/04/30 04:16:27;;;;;;;8.35;7.47;;;;;;;4.32;100.00;101766.59;7790639;18;20034;-70
2023/04/30 04:18:54;;;;;;;9.27;6.40;;;;;;;4.40;100.00;101764.81;7837735;18;19994;-70
2023/04/30 04:21:20;;;;;;;16.80;7.40;;;;;;;4.62;100.00;101775.00;7789824;18;20499;-71
2023/04/30 04:23:47;;;;;;;9.73;6.00;;;;;;;4.98;100.00;101773.72;7837578;18;20017;-72
2023/04/30 04:26:13;;;;;;;6.90;6.30;;;;;;;5.36;100.00;101779.34;7749785;18;19994;-72
2023/04/30 04:28:41;;;;;;;11.27;7.47;;;;;;;5.76;100.00;101778.78;7837039;18;19993;-71
2023/04/30 04:31:07;;;;;;;8.73;5.68;;;;;;;6.07;100.00;101784.41;7789471;18;19997;-73
2023/04/30 04:33:33;;;;;;;8.07;6.50;;;;;;;5.90;100.00;101703.88;7837748;18;19997;-70
2023/04/30 04:36:00;;;;;;;15.82;6.00;;;;;;;6.42;100.00;101764.72;7791013;18;20585;-72
2023/04/30 04:38:26;;;;;;;8.98;6.60;;;;;;;6.02;100.00;101697.66;7836451;18;20334;-72
2023/04/30 04:40:53;;;;;;;8.23;7.25;;;;;;;6.27;100.00;101771.03;7789587;18;19994;-73
2023/04/30 04:43:19;;;;;;;9.18;7.40;;;;;;;6.02;100.00;101772.38;7838501;18;20013;-71
2023/04/30 04:45:48;;;;;;;9.68;7.95;;;;;;;5.92;100.00;101764.66;7748618;18;20001;-71
2023/04/30 04:48:15;;;;;;;9.20;6.43;;;;;;;5.65;100.00;101702.56;7836799;18;20012;-71
2023/04/30 04:50:41;;;;;;;8.68;7.82;;;;;;;6.56;100.00;101767.09;7791330;18;20006;-71
2023/04/30 04:53:08;;;;;;;6.63;6.07;;;;;;;7.14;100.00;101741.59;7842553;18;20005;-70
2023/04/30 04:55:35;;;;;;;6.90;6.30;;;;;;;8.06;100.00;101781.31;7755716;18;19998;-70
2023/04/30 04:58:03;;;;;;;10.32;6.70;;;;;;;8.65;100.00;101783.31;7840662;18;20008;-71
2023/04/30 05:00:32;;;;;;;7.38;6.78;;;;;;;9.25;100.00;101773.78;7790173;18;20491;-70
2023/04/30 05:02:59;;;;;;;12.32;7.10;;;;;;;9.84;100.00;101775.47;7836527;18;20013;-72
2023/04/30 05:05:25;;;;;;;7.03;6.47;;;;;;;10.21;100.00;101761.19;7790080;18;20527;-71
2023/04/30 05:07:53;;;;;;;6.60;5.93;;;;;;;10.69;100.00;101747.28;7836717;18;20008;-71
2023/04/30 05:10:20;;;;;;;11.27;7.20;;;;;;;10.90;93.80;101687.03;7790346;18;20002;-70
2023/04/30 05:12:47;;;;;;;6.88;6.32;;;;;;;11.28;89.00;101688.16;7836480;18;19993;-71
2023/04/30 05:15:13;;;;;;;7.35;6.40;;;;;;;11.02;83.74;101606.91;7791548;18;20016;-72
2023/04/30 05:17:40;;;;;;;8.05;7.32;;;;;;;10.81;79.47;101582.34;7794418;18;20020;-72
2023/04/30 05:20:08;;;;;;;9.38;7.13;;;;;;;10.32;78.52;101541.31;7788061;18;20069;-70
2023/04/30 05:22:34;;;;;;;9.20;7.18;;;;;;;11.00;80.08;101630.59;7837015;18;20057;-73
2023/04/30 05:25:01;;;;;;;11.50;6.78;;;;;;;10.94;80.39;101581.81;7789846;18;20002;-73
2023/04/30 05:27:27;;;;;;;8.15;7.45;;;;;;;11.36;78.55;101633.53;7837337;18;20061;-74
2023/04/30 05:29:54;;;;;;;10.18;7.88;;;;;;;10.63;76.57;101555.88;7788529;18;20515;-75
2023/04/30 05:32:23;;;;;;;8.55;7.72;;;;;;;8.69;79.77;101475.31;7794258;18;20034;-73
2023/04/30 05:34:52;;;;;;;12.48;8.65;;;;;;;8.42;85.45;101594.72;7791920;18;20012;-73
2023/04/30 05:37:21;;;;;;;8.60;7.53;;;;;;;9.04;89.50;101690.63;7842290;18;19993;-71
2023/04/30 05:39:48;;;;;;;8.07;7.38;;;;;;;9.51;89.21;101655.09;7794675;18;20009;-71
2023/04/30 05:42:14;;;;;;;13.23;7.82;;;;;;;10.54;87.83;101663.84;7841683;18;20009;-71
2023/04/30 05:44:40;;;;;;;10.25;8.80;;;;;;;11.56;84.62;101703.69;7793828;18;20017;-73
2023/04/30 05:47:07;;;;;;;9.23;7.57;;;;;;;12.01;81.15;101693.16;7840818;18;20025;-72
2023/04/30 05:49:33;;;;;;;7.68;6.95;;;;;;;12.59;78.43;101677.47;7793104;18;20002;-71
2023/04/30 05:52:02;;;;;;;7.68;6.97;;;;;;;13.00;77.18;101660.69;7840602;18;20021;-71
2023/04/30 05:54:29;;;;;;;14.15;8.35;;;;;;;12.81;75.27;101576.38;7793325;18;20080;-71
2023/04/30 05:56:56;;;;;;;9.43;7.95;;;;;;;12.61;73.17;101559.75;7838968;18;20009;-72
2023/04/30 05:59:23;;;;;;;11.13;10.00;;;;;;;12.11;73.31;101539.25;7789245;18;20069;-71
2023/04/30 06:01:51;;;;;;;8.98;8.13;;;;;;;11.84;75.11;101576.34;7839324;18;20009;-71
2023/04/30 06:04:18;;;;;;;10.10;8.10;;;;;;;11.24;76.93;101580.63;7838247;18;20098;-71
2023/04/30 06:06:44;;;;;;;8.55;7.70;;;;;;;11.13;78.88;101610.81;7840116;18;19994;-71
2023/04/30 06:09:11;;;;;;;9.73;8.00;;;;;;;10.29;80.67;101482.81;7794394;18;19998;-74
2023/04/30 06:11:37;;;;;;;10.93;8.00;;;;;;;10.93;81.75;101626.50;7792281;18;19998;-72
2023/04/30 06:14:07;;;;;;;9.30;8.43;;;;;;;10.86;81.97;101635.53;7791386;18;20001;-72
2023/04/30 06:16:34;;;;;;;11.02;7.60;;;;;;;10.86;83.72;101654.75;7750247;18;20001;-72
2023/04/30 06:19:00;;;;;;;14.82;9.05;;;;;;;10.41;84.15;101589.97;7790252;18;20009;-73
2023/04/30 06:21:26;;;;;;;9.43;8.07;;;;;;;10.56;84.14;101636.66;7786397;18;19994;-73
2023/04/30 06:23:53;;;;;;;8.43;7.68;;;;;;;10.41;84.26;101617.97;7785801;18;20005;-73
2023/04/30 06:26:19;;;;;;;8.95;8.23;;;;;;;10.63;84.84;101649.53;7788301;18;20009;-72
2023/04/30 06:28:46;;;;;;;11.43;8.93;;;;;;;10.65;85.52;101650.34;7785823;18;20021;-73
2023/04/30 06:31:12;;;;;;;15.73;8.35;;;;;;;10.70;85.82;101662.34;7789668;18;20085;-72
2023/04/30 06:33:38;;;;;;;8.68;7.78;;;;;;;10.70;85.99;101664.97;7786408;18;20218;-71
2023/04/30 06:36:05;;;;;;;13.70;10.05;;;;;;;10.70;86.42;101674.63;7781467;18;20186;-72
2023/04/30 06:38:31;;;;;;;8.68;7.88;;;;;;;10.30;86.61;101648.09;7781751;18;20531;-72
2023/04/30 06:40:58;;;;;;;8.63;7.82;;;;;;;10.52;88.12;101689.28;7787546;18;20403;-71
2023/04/30 06:43:27;;;;;;;10.95;9.55;;;;;;;10.68;88.48;101679.09;7787008;18;20013;-72
2023/04/30 06:45:53;;;;;;;9.25;7.93;;;;;;;10.26;88.09;101616.72;7787791;18;20065;-70
2023/04/30 06:48:20;;;;;;;15.88;8.13;;;;;;;10.56;88.27;101688.25;7786957;18;20123;-72
2023/04/30 06:50:46;;;;;;;13.93;8.02;;;;;;;10.66;89.74;101707.16;7787020;18;20064;-71
2023/04/30 06:53:13;;;;;;;9.45;8.10;;;;;;;10.75;89.76;101699.81;7787907;18;20174;-69
2023/04/30 06:55:41;;;;;;;9.70;8.70;;;;;;;10.86;89.57;101714.31;7746272;18;20060;-70
2023/04/30 06:58:08;;;;;;;8.90;7.38;;;;;;;11.06;89.08;101711.78;7787151;18;20164;-71
2023/04/30 07:00:35;;;;;;;9.77;8.75;;;;;;;10.77;87.53;101649.88;7743301;18;20305;-71
2023/04/30 07:03:03;;;;;;;8.82;7.85;;;;;;;9.25;86.50;101395.78;7744945;18;19994;-71
2023/04/30 07:05:30;;;;;;;9.75;8.52;;;;;;;11.12;85.62;101687.91;7792357;18;20016;-73
2023/04/30 07:07:57;;;;;;;8.88;8.07;;;;;;;10.94;83.70;101620.34;7786271;18;20320;-72
2023/04/30 07:10:23;;;;;;;12.88;8.65;;;;;;;11.04;82.69;101608.53;7745647;18;20077;-72
2023/04/30 07:12:50;;;;;;;12.32;8.27;;;;;;;11.38;80.70;101639.59;7786604;18;20229;-74
2023/04/30 07:15:16;;;;;;;9.95;8.02;;;;;;;10.82;79.90;101515.78;7747278;18;20074;-72
2023/04/30 07:17:43;;;;;;;9.10;8.18;;;;;;;11.12;80.27;101574.09;7744946;18;20226;-74
2023/04/30 07:20:11;;;;;;;11.05;9.00;;;;;;;11.35;78.33;101591.56;7788133;18;20010;-73
2023/04/30 07:22:37;;;;;;;11.65;8.73;;;;;;;10.21;77.76;101399.16;7786747;18;19998;-73
2023/04/30 07:25:04;;;;;;;9.10;8.20;;;;;;;11.48;76.18;101574.34;7788685;18;20010;-71
2023/04/30 07:27:31;;;;;;;13.52;8.38;;;;;;;10.97;75.75;101462.63;7787316;18;20022;-72
2023/04/30 07:29:57;;;;;;;8.55;7.75;;;;;;;11.04;75.49;101489.50;7745902;18;20430;-70
2023/04/30 07:32:26;;;;;;;8.15;7.28;;;;;;;11.86;75.73;101585.00;7786252;18;19998;-70
2023/04/30 07:34:52;;;;;;;14.60;7.93;;;;;;;12.04;76.03;101586.00;7787586;18;20006;-71
2023/04/30 07:37:19;;;;;;;10.00;8.50;;;;;;;12.20;76.13;101591.44;7786604;18;20380;-71
2023/04/30 07:39:45;;;;;;;11.93;8.32;;;;;;;12.12;74.51;101565.47;7787451;18;20420;-71
2023/04/30 07:42:12;;;;;;;10.10;8.20;;;;;;;12.21;75.04;101569.50;7787931;18;20082;-71
2023/04/30 07:44:38;;;;;;;12.40;7.85;;;;;;;11.85;74.93;101533.34;7786114;18;20006;-70
2023/04/30 07:47:05;;;;;;;9.88;7.88;;;;;;;11.61;74.90;101479.22;7785964;18;20059;-71
2023/04/30 07:49:31;;;;;;;9.68;8.68;;;;;;;12.09;74.07;101549.84;7788047;18;20009;-71
2023/04/30 07:51:59;;;;;;;11.30;9.57;;;;;;;11.67;75.25;101474.53;7746112;18;20018;-72
2023/04/30 07:54:26;;;;;;;11.48;8.07;;;;;;;11.84;74.62;101463.25;7786878;18;20291;-71
2023/04/30 07:56:53;;;;;;;12.40;9.25;;;;;;;12.59;74.09;101548.44;7786426;18;20006;-70
2023/04/30 07:59:24;;;;;;;12.98;8.45;;;;;;;12.11;73.91;101465.59;7834766;18;20088;-72
2023/04/30 08:01:50;;;;;;;10.63;8.60;;;;;;;12.56;73.40;101554.69;7789444;18;20394;-72
2023/04/30 08:04:17;;;;;;;11.85;8.00;;;;;;;12.13;72.76;101469.84;7834277;18;20029;-70
2023/04/30 08:06:44;;;;;;;13.45;9.05;;;;;;;12.69;72.53;101522.50;7834808;18;20001;-71
2023/04/30 08:09:10;;;;;;;11.40;8.32;;;;;;;12.72;72.37;101511.84;7835493;18;20010;-70
2023/04/30 08:11:37;;;;;;;9.45;8.10;;;;;;;12.49;71.45;101439.22;7836687;18;20207;-71
2023/04/30 08:14:04;;;;;;;10.02;9.00;;;;;;;13.13;71.41;101530.06;7835857;18;19997;-70
2023/04/30 08:16:30;;;;;;;10.00;9.00;;;;;;;12.73;71.52;101452.97;7835558;18;19994;-73
2023/04/30 08:18:58;;;;;;;14.57;9.05;;;;;;;13.21;71.94;101537.56;7830860;18;20117;-72
2023/04/30 08:21:26;;;;;;;14.48;8.90;;;;;;;13.15;72.14;101546.66;7833382;18;20001;-71
2023/04/30 08:23:53;;;;;;;9.30;8.30;;;;;;;13.11;70.75;101503.78;7832855;18;20017;-70
2023/04/30 08:26:20;;;;;;;10.13;9.10;;;;;;;13.36;70.89;101521.84;7834407;18;20056;-71
2023/04/30 08:28:46;;;;;;;11.90;9.10;;;;;;;13.46;68.46;101487.13;7792980;18;20017;-72
2023/04/30 08:31:13;;;;;;;9.05;8.20;;;;;;;13.83;68.47;101488.69;7790174;18;19998;-72
2023/04/30 08:33:40;;;;;;;9.82;7.72;;;;;;;13.73;68.50;101477.78;7837115;18;20366;-71
2023/04/30 08:36:06;;;;;;;8.95;8.05;;;;;;;13.76;70.15;101508.41;7790705;18;20014;-71
2023/04/30 08:38:33;;;;;;;12.75;8.68;;;;;;;13.95;69.27;101503.88;7836661;18;20203;-72
2023/04/30 08:41:11;;;;;;;11.38;8.02;;;;;;;14.29;67.26;101480.91;7792479;18;19994;-70
2023/04/30 08:43:39;;;;;;;11.25;8.45;;;;;;;14.58;65.94;101454.69;7832821;18;20008;-71
2023/04/30 08:46:06;;;;;;;9.73;7.90;;;;;;;14.59;63.88;101398.25;7781820;18;20434;-71
2023/04/30 08:48:33;;;;;;;8.25;7.45;;;;;;;14.59;62.21;101328.75;7833247;18;19997;-72
2023/04/30 08:51:01;;;;;;;9.70;8.27;;;;;;;14.56;62.15;101329.78;7743550;18;20009;-71
2023/04/30 08:53:29;;;;;;;8.32;7.47;;;;;;;14.33;62.02;101325.78;7834318;18;20107;-70
2023/04/30 08:55:57;;;;;;;9.43;7.45;;;;;;;14.28;61.81;101257.41;7788935;18;20245;-71
2023/04/30 08:58:23;;;;;;;7.57;6.90;;;;;;;14.92;61.33;101310.88;7836132;18;20016;-71
2023/04/30 09:00:50;;;;;;;7.88;7.13;;;;;;;15.08;61.52;101333.75;7787470;18;20380;-70
2023/04/30 09:03:16;;;;;;;14.15;7.57;;;;;;;14.95;59.53;101241.09;7833938;18;19994;-71
2023/04/30 09:05:43;;;;;;;8.75;7.68;;;;;;;14.96;59.21;101225.16;7778967;18;20064;-71
2023/04/30 09:08:16;;;;;;;7.75;6.97;;;;;;;15.32;59.20;101263.47;7834769;18;20011;-71
2023/04/30 09:10:43;;;;;;;7.40;6.80;;;;;;;15.35;58.91;101239.47;7747730;18;20022;-71
2023/04/30 09:13:10;;;;;;;6.13;5.72;;;;;;;15.58;57.83;101208.03;7834193;18;20360;-71
2023/04/30 09:15:43;;;;;;;9.43;6.63;;;;;;;15.61;56.51;101148.78;7788640;18;20325;-71
2023/04/30 09:18:10;;;;;;;;;;;;;;;15.72;57.18;101186.84;7836550;18;20062;-71
2023/04/30 09:20:37;;;;;;;6.70;6.10;;;;;;;15.54;56.72;101125.38;7786060;18;19968;-71
2023/04/30 09:23:09;;;;;;;7.13;6.57;;;;;;;15.69;56.71;101159.72;7792634;18;20010;-70
2023/04/30 09:25:40;;;;;;;7.15;6.65;;;;;;;15.80;57.00;101172.28;7744189;18;20005;-70
2023/04/30 09:28:08;;;;;;;6.47;5.93;;;;;;;15.68;57.91;101190.63;7834217;18;20097;-72
2023/04/30 09:30:35;;;;;;;6.88;6.35;;;;;;;15.67;57.39;101151.88;7789336;18;20005;-71
2023/04/30 09:33:02;;;;;;;7.05;6.50;;;;;;;15.37;57.43;101123.00;7832512;18;20008;-74
2023/04/30 09:35:37;;;;;;;7.05;6.55;;;;;;;15.43;58.48;101170.19;7785937;18;20002;-73
2023/04/30 09:38:05;;;;;;;6.82;6.20;;;;;;;15.21;58.31;101135.53;7793678;18;20038;-73
2023/04/30 09:40:37;;;;;;;6.85;6.25;;;;;;;15.68;58.74;101227.66;7748676;18;20002;-71
2023/04/30 09:43:03;;;;;;;6.93;6.32;;;;;;;15.87;57.97;101189.44;7836911;18;20017;-71
2023/04/30 09:45:46;;;;;;;7.68;6.90;;;;;;;15.25;58.21;101089.44;7788916;18;19998;-70
2023/04/30 09:48:14;;;;;;;7.13;6.53;;;;;;;16.12;57.35;101175.41;7835312;18;20486;-71
2023/04/30 09:50:44;;;;;;;6.80;6.20;;;;;;;15.71;56.88;101086.34;7790045;18;20446;-71
2023/04/30 09:53:16;;;;;;;14.38;6.43;;;;;;;16.20;56.06;101141.28;7841568;18;20014;-71
2023/04/30 09:55:45;;;;;;;6.50;5.95;;;;;;;16.46;55.11;101085.66;7796102;18;20437;-73
2023/04/30 09:58:12;;;;;;;6.93;6.35;;;;;;;16.62;54.94;101099.50;7841669;18;20024;-72
2023/04/30 10:00:40;;;;;;;6.32;5.82;;;;;;;16.71;54.92;101114.72;7788177;18;20348;-71
2023/04/30 10:03:08;;;;;;;7.72;7.03;;;;;;;16.90;55.47;101146.13;7832678;18;20055;-70
2023/04/30 10:05:46;;;;;;;6.20;5.80;;;;;;;16.97;53.98;101090.84;7748106;18;20065;-71
2023/04/30 10:08:17;;;;;;;6.97;6.47;;;;;;;16.89;53.04;101056.09;7794906;18;20001;-74
2023/04/30 10:10:46;;;;;;;6.60;6.20;;;;;;;16.38;52.86;100964.34;7788692;18;20209;-73
2023/04/30 10:13:18;;;;;;;6.13;5.72;;;;;;;16.89;52.59;101024.28;7835821;18;20441;-70
2023/04/30 10:15:50;;;;;;;6.30;5.90;;;;;;;16.75;51.53;101004.06;7788110;18;20395;-71
2023/04/30 10:18:25;;;;;;;6.10;5.70;;;;;;;17.03;50.79;101024.09;7836293;18;20165;-73
2023/04/30 10:20:53;;;;;;;5.93;5.60;;;;;;;17.57;50.87;101074.94;7746448;18;20141;-73
2023/04/30 10:23:21;;;;;;;6.15;5.60;;;;;;;17.21;49.23;100966.19;7835519;18;20005;-71
2023/04/30 10:25:49;;;;;;;5.88;5.57;;;;;;;16.90;50.58;100989.72;7788815;18;20002;-71
2023/04/30 10:28:16;;;;;;;5.75;5.43;;;;;;;17.37;51.23;101077.28;7835176;18;20020;-71
2023/04/30 10:30:43;;;;;;;6.38;5.97;;;;;;;18.22;49.97;101114.22;7788717;18;19989;-70
2023/04/30 10:33:40;;;;;;;6.28;5.88;;;;;;;18.19;49.37;101095.84;7836154;18;20004;-71
2023/04/30 10:36:12;;;;;;;6.13;5.78;;;;;;;17.81;48.63;101035.06;7788809;18;20085;-70
2023/04/30 10:38:39;;;;;;;6.03;5.65;;;;;;;17.58;48.75;101020.91;7835274;18;20047;-71
2023/04/30 10:41:08;;;;;;;6.35;5.95;;;;;;;17.04;49.14;100959.53;7790569;18;20010;-71
2023/04/30 10:43:35;;;;;;;6.10;5.75;;;;;;;18.03;48.94;101084.75;7836109;18;20005;-70
2023/04/30 10:46:03;;;;;;;6.45;6.05;;;;;;;17.93;49.82;101119.97;7749613;18;19994;-71
2023/04/30 10:48:33;;;;;;;6.13;5.72;;;;;;;18.47;50.26;101208.81;7836462;18;20041;-71
2023/04/30 10:51:00;;;;;;;6.20;5.82;;;;;;;18.09;49.19;101121.44;7792564;18;20072;-71
2023/04/30 10:53:31;;;;;;;6.18;5.78;;;;;;;18.48;48.35;101122.81;7837413;18;20005;-71
2023/04/30 10:56:07;;;;;;;6.53;6.13;;;;;;;18.98;47.47;101134.88;7748618;18;20018;-72
2023/04/30 10:58:36;;;;;;;6.15;5.75;;;;;;;19.34;47.13;101168.28;7793964;18;20126;-71
2023/04/30 11:01:11;;;;;;;5.88;5.57;;;;;;;19.27;46.00;101113.88;7788773;18;20053;-71
2023/04/30 11:04:01;;;;;;;6.40;6.00;;;;;;;19.17;46.53;101144.88;7835762;18;20001;-73
2023/04/30 11:07:08;;;;;;;6.57;6.13;;;;;;;18.51;47.68;101097.78;7786140;18;20155;-72
2023/04/30 11:09:42;;;;;;;6.20;5.80;;;;;;;17.87;51.44;101231.09;7787828;18;20068;-72
2023/04/30 11:12:29;;;;;;;6.00;5.70;;;;;;;17.72;50.81;101188.78;7787435;18;20487;-71
2023/04/30 11:15:05;;;;;;;6.10;5.80;;;;;;;17.31;50.58;101142.25;7787179;18;20072;-71
2023/04/30 11:17:33;;;;;;;6.00;5.70;;;;;;;17.45;49.88;101135.94;7787784;18;20037;-71
2023/04/30 11:20:00;;;;;;;5.90;5.60;;;;;;;17.58;50.71;101183.66;7744835;18;20000;-71
2023/04/30 11:22:28;;;;;;;5.78;5.47;;;;;;;17.59;52.79;101283.53;7787208;18;20134;-72
2023/04/30 11:24:58;;;;;;;5.95;5.60;;;;;;;17.55;50.14;101174.09;7786953;18;20044;-71
2023/04/30 11:27:27;;;;;;;5.72;5.43;;;;;;;17.99;50.77;101237.31;7787157;18;20154;-72
2023/04/30 11:29:54;;;;;;;5.80;5.50;;;;;;;18.56;49.43;101260.41;7787995;18;20811;-70